createdAt,value
2019-02-28T00:02:33.915Z,9.47
2019-02-28T00:05:06.833Z,9.43
2019-02-28T00:07:39.411Z,8.83
2019-02-28T00:10:12.296Z,7.53
2019-02-28T00:12:45.225Z,8.70
2019-02-28T00:15:19.094Z,7.90
2019-02-28T00:17:51.423Z,7.67
2019-02-28T00:20:26.098Z,6.87
2019-02-28T00:22:58.520Z,7.63
2019-02-28T00:25:30.917Z,7.30
2019-02-28T00:28:03.335Z,7.17
2019-02-28T00:30:37.449Z,7.03
2019-02-28T00:33:09.933Z,7.70
2019-02-28T00:35:44.751Z,6.63
2019-02-28T00:38:16.006Z,6.87
2019-02-28T00:40:48.299Z,7.10
2019-02-28T00:43:22.315Z,6.67
2019-02-28T00:45:54.695Z,7.07
2019-02-28T00:48:27.123Z,6.87
2019-02-28T00:50:59.702Z,7.13
2019-02-28T00:53:32.098Z,6.37
2019-02-28T00:56:04.331Z,6.77
2019-02-28T00:58:36.825Z,7.07
2019-02-28T01:01:11.560Z,5.73
2019-02-28T01:03:43.375Z,7.23
2019-02-28T01:06:15.869Z,6.73
2019-02-28T01:08:48.475Z,6.57
2019-02-28T01:11:21.117Z,10.00
2019-02-28T01:13:53.700Z,14.13
2019-02-28T01:16:26.285Z,14.03
2019-02-28T01:18:58.822Z,15.27
2019-02-28T01:21:31.529Z,14.77
2019-02-28T01:24:03.784Z,14.93
2019-02-28T01:26:36.083Z,15.73
2019-02-28T01:29:08.600Z,16.93
2019-02-28T01:31:42.541Z,17.93
2019-02-28T01:34:14.026Z,17.60
2019-02-28T01:36:45.905Z,17.23
2019-02-28T01:39:19.232Z,16.17
2019-02-28T01:41:52.657Z,17.67
2019-02-28T01:44:24.391Z,17.60
2019-02-28T01:46:56.763Z,16.33
2019-02-28T01:49:29.330Z,17.20
2019-02-28T01:52:01.952Z,16.93
2019-02-28T01:54:34.317Z,17.77
2019-02-28T01:57:08.935Z,17.87
2019-02-28T01:59:39.835Z,17.53
2019-02-28T02:02:11.587Z,16.97
2019-02-28T02:04:45.790Z,16.73
2019-02-28T02:07:17.344Z,16.60
2019-02-28T02:09:50.173Z,16.77
2019-02-28T02:12:22.769Z,17.10
2019-02-28T02:14:55.155Z,19.80
2019-02-28T02:17:27.699Z,18.37
2019-02-28T02:20:00.260Z,18.60
2019-02-28T02:22:32.576Z,18.70
2019-02-28T02:25:05.098Z,18.80
2019-02-28T02:27:37.641Z,17.83
2019-02-28T02:30:15.945Z,16.07
2019-02-28T02:32:48.638Z,17.90
2019-02-28T02:35:21.413Z,17.73
2019-02-28T02:37:53.897Z,17.40
2019-02-28T02:40:26.696Z,16.23
2019-02-28T02:42:59.024Z,17.03
2019-02-28T02:45:31.374Z,14.97
2019-02-28T02:48:05.161Z,15.20
2019-02-28T02:50:37.876Z,16.70
2019-02-28T02:53:10.452Z,25.37
2019-02-28T02:55:42.858Z,15.60
2019-02-28T02:58:15.799Z,21.77
2019-02-28T03:00:51.161Z,16.80
2019-02-28T03:03:22.658Z,22.97
2019-02-28T03:05:55.566Z,20.23
2019-02-28T03:08:27.998Z,22.07
2019-02-28T03:11:00.466Z,25.73
2019-02-28T03:13:32.871Z,24.00
2019-02-28T03:16:05.152Z,24.43
2019-02-28T03:18:37.500Z,21.30
2019-02-28T03:21:10.256Z,19.37
2019-02-28T03:23:42.639Z,19.70
2019-02-28T03:26:15.123Z,20.53
2019-02-28T03:28:47.329Z,16.87
2019-02-28T03:31:19.773Z,16.10
2019-02-28T03:33:52.273Z,15.03
2019-02-28T03:36:25.141Z,13.87
2019-02-28T03:38:57.728Z,12.03
2019-02-28T03:41:30.085Z,13.23
2019-02-28T03:44:02.636Z,11.63
2019-02-28T03:46:35.194Z,12.23
2019-02-28T03:49:11.727Z,12.57
2019-02-28T03:51:42.190Z,13.23
2019-02-28T03:54:14.857Z,14.00
2019-02-28T03:56:52.911Z,14.67
2019-02-28T03:59:21.880Z,12.77
2019-02-28T04:01:54.393Z,13.43
2019-02-28T04:04:27.068Z,13.80
2019-02-28T04:06:59.492Z,13.43
2019-02-28T04:09:32.016Z,13.00
2019-02-28T04:12:08.657Z,12.07
2019-02-28T04:14:38.470Z,11.37
2019-02-28T04:17:10.968Z,11.77
2019-02-28T04:19:43.313Z,12.90
2019-02-28T04:22:19.625Z,12.50
2019-02-28T04:24:49.739Z,14.30
2019-02-28T04:27:22.311Z,19.10
2019-02-28T04:29:54.487Z,18.77
2019-02-28T04:32:27.962Z,19.40
2019-02-28T04:35:00.529Z,21.13
2019-02-28T04:37:33.924Z,16.93
2019-02-28T04:40:06.768Z,14.00
2019-02-28T04:42:39.287Z,14.00
2019-02-28T04:45:12.327Z,16.67
2019-02-28T04:47:44.762Z,17.03
2019-02-28T04:50:17.351Z,12.70
2019-02-28T04:52:49.908Z,12.83
2019-02-28T04:55:22.298Z,11.97
2019-02-28T04:57:54.722Z,11.17
2019-02-28T05:00:27.230Z,11.30
2019-02-28T05:02:59.646Z,9.27
2019-02-28T05:05:32.108Z,8.63
2019-02-28T05:08:05.799Z,8.23
2019-02-28T05:10:38.203Z,7.80
2019-02-28T05:13:11.382Z,7.40
2019-02-28T05:15:44.771Z,7.00
2019-02-28T05:18:17.085Z,7.87
2019-02-28T05:20:49.586Z,7.13
2019-02-28T05:23:21.867Z,7.63
2019-02-28T05:25:54.371Z,7.60
2019-02-28T05:28:26.652Z,7.10
2019-02-28T05:30:59.220Z,7.50
2019-02-28T05:33:31.505Z,7.37
2019-02-28T05:36:04.385Z,7.10
2019-02-28T05:38:36.821Z,8.10
2019-02-28T05:41:12.211Z,8.43
2019-02-28T05:43:43.338Z,11.57
2019-02-28T05:46:15.753Z,9.70
2019-02-28T05:48:48.283Z,8.10
2019-02-28T05:51:20.624Z,6.73
2019-02-28T05:53:52.981Z,7.70
2019-02-28T05:56:25.422Z,7.83
2019-02-28T05:58:57.887Z,7.50
2019-02-28T06:01:30.174Z,8.07
2019-02-28T06:04:03.328Z,15.07
2019-02-28T06:06:36.359Z,11.67
2019-02-28T06:09:10.319Z,8.20
2019-02-28T06:11:43.964Z,7.57
2019-02-28T06:14:16.456Z,9.73
2019-02-28T06:16:48.768Z,10.30
2019-02-28T06:19:21.251Z,9.43
2019-02-28T06:21:56.399Z,8.50
2019-02-28T06:24:28.027Z,7.20
2019-02-28T06:27:03.624Z,7.70
2019-02-28T06:29:36.810Z,7.37
2019-02-28T06:32:08.882Z,10.10
2019-02-28T06:34:42.206Z,10.07
2019-02-28T06:37:15.930Z,8.77
2019-02-28T06:39:48.392Z,7.60
2019-02-28T06:42:20.824Z,7.83
2019-02-28T06:44:53.264Z,7.57
2019-02-28T06:47:25.742Z,7.77
2019-02-28T06:49:58.400Z,8.47
2019-02-28T06:52:30.912Z,11.30
2019-02-28T06:55:03.737Z,7.47
2019-02-28T06:57:36.061Z,7.07
2019-02-28T07:00:10.422Z,7.07
2019-02-28T07:02:43.849Z,8.20
2019-02-28T07:05:16.535Z,7.63
2019-02-28T07:07:49.857Z,7.97
2019-02-28T07:10:22.898Z,8.10
2019-02-28T07:12:55.445Z,8.50
2019-02-28T07:15:27.839Z,7.70
2019-02-28T07:18:00.503Z,8.40
2019-02-28T07:20:35.062Z,8.20
2019-02-28T07:23:07.324Z,8.63
2019-02-28T07:25:39.653Z,8.03
2019-02-28T07:28:12.693Z,7.87
2019-02-28T07:30:45.378Z,7.27
2019-02-28T07:33:17.862Z,8.20
2019-02-28T07:35:50.119Z,7.70
2019-02-28T07:38:25.623Z,7.50
2019-02-28T07:40:56.529Z,8.27
2019-02-28T07:43:29.121Z,7.30
2019-02-28T07:46:04.426Z,6.90
2019-02-28T07:48:36.062Z,7.33
2019-02-28T07:51:08.446Z,7.65
2019-02-28T07:53:41.937Z,6.10
2019-02-28T07:56:14.426Z,6.70
2019-02-28T07:58:46.870Z,6.33
2019-02-28T08:01:19.229Z,6.35
2019-02-28T08:03:51.700Z,6.17
2019-02-28T08:06:24.201Z,5.47
2019-02-28T08:08:56.857Z,6.05
2019-02-28T08:11:29.573Z,6.50
2019-02-28T08:14:02.215Z,6.53
2019-02-28T08:16:34.839Z,7.10
2019-02-28T08:19:07.764Z,6.58
2019-02-28T08:21:43.983Z,5.30
2019-02-28T08:24:14.357Z,6.28
2019-02-28T08:26:46.644Z,5.50
2019-02-28T08:29:19.208Z,6.20
2019-02-28T08:31:51.718Z,6.08
2019-02-28T08:34:25.006Z,5.87
2019-02-28T08:36:57.373Z,5.97
2019-02-28T08:39:29.857Z,8.85
2019-02-28T08:42:04.383Z,8.55
2019-02-28T08:44:36.726Z,4.90
2019-02-28T08:47:09.248Z,5.17
2019-02-28T08:49:44.536Z,5.30
2019-02-28T08:52:15.925Z,5.12
2019-02-28T08:54:48.577Z,4.97
2019-02-28T08:57:22.032Z,4.90
2019-02-28T08:59:56.270Z,5.15
2019-02-28T09:02:30.415Z,5.45
2019-02-28T09:05:02.879Z,4.28
2019-02-28T09:07:35.224Z,4.83
2019-02-28T09:10:11.871Z,4.97
2019-02-28T09:12:43.162Z,4.87
2019-02-28T09:15:16.950Z,4.42
2019-02-28T09:17:49.553Z,4.78
2019-02-28T09:20:23.047Z,4.90
2019-02-28T09:23:01.551Z,4.50
2019-02-28T09:25:29.847Z,4.55
2019-02-28T09:28:02.321Z,4.97
2019-02-28T09:30:39.111Z,5.67
2019-02-28T09:33:11.605Z,5.37
2019-02-28T09:35:46.355Z,5.53
2019-02-28T09:38:18.235Z,5.67
2019-02-28T09:40:50.717Z,5.70
2019-02-28T09:43:23.859Z,6.12
2019-02-28T09:46:16.446Z,5.95
2019-02-28T09:48:49.337Z,6.47
2019-02-28T09:51:21.911Z,6.53
2019-02-28T09:53:54.351Z,6.37
2019-02-28T09:56:27.064Z,6.90
2019-02-28T09:59:00.248Z,6.42
2019-02-28T10:01:33.564Z,9.48
2019-02-28T10:04:06.035Z,6.92
2019-02-28T10:06:38.533Z,7.33
2019-02-28T10:09:11.043Z,7.50
2019-02-28T10:11:43.794Z,8.53
2019-02-28T10:14:16.241Z,9.20
2019-02-28T10:16:49.638Z,9.23
2019-02-28T10:19:23.816Z,8.50
2019-02-28T10:21:56.370Z,8.78
2019-02-28T10:24:31.461Z,10.30
2019-02-28T10:27:03.568Z,7.00
2019-02-28T10:29:38.421Z,7.95
2019-02-28T10:32:10.356Z,6.85
2019-02-28T10:34:42.723Z,8.25
2019-02-28T10:37:15.254Z,8.95
2019-02-28T10:39:47.788Z,8.43
2019-02-28T10:42:20.346Z,15.88
2019-02-28T10:44:52.808Z,9.10
2019-02-28T10:47:29.626Z,9.23
2019-02-28T10:49:59.510Z,8.33
2019-02-28T10:52:32.157Z,8.33
2019-02-28T10:55:05.289Z,7.55
2019-02-28T10:57:40.599Z,7.12
2019-02-28T11:00:20.178Z,8.20
2019-02-28T11:02:57.409Z,7.58
2019-02-28T11:05:31.186Z,7.83
2019-02-28T11:08:05.081Z,7.65
2019-02-28T11:10:39.400Z,8.08
2019-02-28T11:13:17.608Z,7.83
2019-02-28T11:15:51.255Z,7.90
2019-02-28T11:18:23.968Z,7.58
2019-02-28T11:20:58.057Z,7.95
2019-02-28T11:23:30.987Z,7.97
2019-02-28T11:26:06.546Z,8.10
2019-02-28T11:28:39.589Z,8.13
2019-02-28T11:31:11.920Z,8.15
2019-02-28T11:33:44.348Z,8.00
2019-02-28T11:36:16.922Z,7.35
2019-02-28T11:38:52.502Z,7.17
2019-02-28T11:41:23.839Z,8.10
2019-02-28T11:43:56.457Z,8.10
2019-02-28T11:46:28.888Z,7.40
2019-02-28T11:49:01.239Z,7.97
2019-02-28T11:51:33.784Z,7.65
2019-02-28T11:54:06.523Z,7.33
2019-02-28T11:56:39.060Z,8.78
2019-02-28T11:59:11.480Z,14.58
2019-02-28T12:01:47.454Z,8.00
2019-02-28T12:04:18.649Z,7.83
2019-02-28T12:06:50.976Z,7.47
2019-02-28T12:09:23.443Z,8.00
2019-02-28T12:11:55.734Z,7.50
2019-02-28T12:14:29.321Z,8.08
2019-02-28T12:17:02.649Z,7.42
2019-02-28T12:19:34.999Z,7.55
2019-02-28T12:22:09.163Z,7.55
2019-02-28T12:24:41.591Z,10.48
2019-02-28T12:27:14.022Z,9.05
2019-02-28T12:29:49.183Z,9.28
2019-02-28T12:32:20.784Z,9.23
2019-02-28T12:34:53.090Z,8.25
2019-02-28T12:37:25.514Z,8.98
2019-02-28T12:39:58.112Z,8.38
2019-02-28T12:42:31.683Z,9.55
2019-02-28T12:45:04.417Z,9.48
2019-02-28T12:47:38.668Z,10.35
2019-02-28T12:50:12.322Z,10.05
2019-02-28T12:52:49.019Z,11.30
2019-02-28T12:55:19.181Z,11.55
2019-02-28T12:57:51.761Z,11.35
2019-02-28T13:00:36.678Z,10.93
2019-02-28T13:03:09.862Z,10.68
2019-02-28T13:05:51.290Z,10.85
2019-02-28T13:08:24.239Z,10.37
2019-02-28T13:11:03.190Z,12.35
2019-02-28T13:13:30.977Z,11.78
2019-02-28T13:16:03.782Z,10.53
2019-02-28T13:18:39.562Z,16.67
2019-02-28T13:21:11.657Z,18.70
2019-02-28T13:23:44.304Z,14.60
2019-02-28T13:26:16.925Z,11.07
2019-02-28T13:28:49.359Z,10.67
2019-02-28T13:31:25.629Z,10.72
2019-02-28T13:33:56.204Z,10.23
2019-02-28T13:36:29.059Z,9.80
2019-02-28T13:39:01.585Z,12.40
2019-02-28T13:41:34.432Z,9.47
2019-02-28T13:44:06.715Z,9.40
2019-02-28T13:46:39.238Z,9.77
2019-02-28T13:49:15.401Z,9.13
2019-02-28T13:51:45.875Z,8.97
2019-02-28T13:54:18.299Z,9.30
2019-02-28T13:56:50.761Z,10.47
2019-02-28T13:59:23.337Z,12.73
2019-02-28T14:01:56.721Z,8.78
2019-02-28T14:04:29.690Z,9.30
2019-02-28T14:07:03.895Z,9.10
2019-02-28T14:09:36.165Z,11.70
2019-02-28T14:12:08.858Z,9.00
2019-02-28T14:14:42.399Z,10.83
2019-02-28T14:17:15.516Z,8.30
2019-02-28T14:19:52.664Z,8.23
2019-02-28T14:22:23.882Z,8.07
2019-02-28T14:24:56.496Z,8.17
2019-02-28T14:27:29.145Z,8.43
2019-02-28T14:30:01.802Z,9.23
2019-02-28T14:32:34.223Z,8.97
2019-02-28T14:35:07.463Z,8.67
2019-02-28T14:37:39.915Z,8.30
2019-02-28T14:40:14.570Z,8.70
2019-02-28T14:42:48.241Z,8.43
2019-02-28T14:45:21.054Z,7.90
2019-02-28T14:47:56.917Z,7.90
2019-02-28T14:50:28.625Z,7.50
2019-02-28T14:53:02.485Z,7.37
2019-02-28T14:55:34.859Z,7.67
2019-02-28T14:58:07.636Z,7.20
2019-02-28T15:00:42.296Z,7.17
2019-02-28T15:03:15.138Z,7.30
2019-02-28T15:05:47.679Z,7.53
2019-02-28T15:08:33.149Z,7.67
2019-02-28T15:11:06.553Z,7.10
2019-02-28T15:13:40.434Z,7.23
2019-02-28T15:16:14.829Z,7.57
2019-02-28T15:18:50.193Z,6.83
2019-02-28T15:21:21.362Z,6.97
2019-02-28T15:23:53.885Z,8.00
2019-02-28T15:26:29.504Z,7.90
2019-02-28T15:29:01.083Z,7.43
2019-02-28T15:31:33.562Z,8.30
2019-02-28T15:34:06.300Z,7.80
2019-02-28T15:36:38.998Z,8.23
2019-02-28T15:39:11.810Z,7.77
2019-02-28T15:41:44.223Z,8.10
2019-02-28T15:44:16.863Z,8.47
2019-02-28T15:46:49.482Z,8.80
2019-02-28T15:49:21.992Z,10.80
2019-02-28T15:51:54.414Z,18.33
2019-02-28T15:54:26.811Z,11.30
2019-02-28T15:56:59.346Z,9.67
2019-02-28T15:59:31.768Z,9.93
2019-02-28T16:02:06.244Z,9.57
2019-02-28T16:04:38.047Z,9.73
2019-02-28T16:07:10.375Z,9.30
2019-02-28T16:09:43.060Z,9.23
2019-02-28T16:12:15.994Z,8.83
2019-02-28T16:14:48.674Z,11.53
2019-02-28T16:17:21.328Z,9.13
2019-02-28T16:19:56.196Z,9.23
2019-02-28T16:22:28.473Z,10.00
2019-02-28T16:25:00.860Z,10.83
2019-02-28T16:27:33.832Z,9.73
2019-02-28T16:30:07.935Z,10.20
2019-02-28T16:32:40.318Z,10.97
2019-02-28T16:35:14.750Z,9.83
2019-02-28T16:37:47.504Z,10.47
2019-02-28T16:40:26.217Z,10.10
2019-02-28T16:42:54.988Z,10.27
2019-02-28T16:45:41.047Z,16.67
2019-02-28T16:48:14.447Z,13.13
2019-02-28T16:50:47.014Z,10.00
2019-02-28T16:53:19.738Z,10.97
2019-02-28T16:55:52.218Z,11.30
2019-02-28T16:58:24.710Z,11.70
2019-02-28T17:00:57.503Z,14.17
2019-02-28T17:03:30.250Z,20.80
2019-02-28T17:06:02.812Z,14.30
2019-02-28T17:08:41.350Z,23.80
2019-02-28T17:11:14.725Z,26.20
2019-02-28T17:13:58.979Z,19.23
2019-02-28T17:16:38.309Z,11.30
2019-02-28T17:19:10.881Z,11.47
2019-02-28T17:21:43.765Z,10.70
2019-02-28T17:24:16.160Z,34.43
2019-02-28T17:27:20.604Z,16.23
2019-02-28T17:30:14.433Z,13.30
2019-02-28T17:32:47.130Z,22.70
2019-02-28T17:35:19.507Z,16.30
2019-02-28T17:37:52.788Z,16.17
2019-02-28T17:40:26.222Z,13.10
2019-02-28T17:42:59.495Z,10.80
2019-02-28T17:45:36.938Z,13.00
2019-02-28T17:49:23.302Z,12.60
2019-02-28T17:52:15.566Z,14.30
2019-02-28T17:55:38.026Z,17.13
2019-02-28T17:59:21.896Z,27.87
2019-02-28T18:02:38.111Z,10.73
2019-02-28T18:06:19.267Z,10.77
2019-02-28T18:10:10.015Z,13.93
2019-02-28T18:13:21.102Z,11.30
2019-02-28T18:16:58.629Z,11.23
2019-02-28T18:20:25.913Z,10.03
2019-02-28T18:23:48.887Z,11.10
2019-02-28T18:27:11.597Z,11.03
2019-02-28T18:30:47.194Z,11.50
2019-02-28T18:33:20.002Z,10.57
2019-02-28T18:35:52.240Z,11.43
2019-02-28T18:38:24.953Z,11.80
2019-02-28T18:40:59.670Z,14.00
2019-02-28T18:43:31.694Z,16.73
2019-02-28T18:46:04.187Z,11.37
2019-02-28T18:48:37.065Z,11.80
2019-02-28T18:51:09.706Z,34.30
2019-02-28T18:53:42.332Z,20.40
2019-02-28T18:56:14.941Z,18.40
2019-02-28T18:58:47.335Z,19.97
2019-02-28T19:01:19.789Z,13.50
2019-02-28T19:03:52.405Z,18.63
2019-02-28T19:06:25.198Z,16.30
2019-02-28T19:08:57.899Z,22.60
2019-02-28T19:11:30.316Z,16.13
2019-02-28T19:14:02.807Z,17.13
2019-02-28T19:16:35.118Z,12.33
2019-02-28T19:19:07.803Z,12.10
2019-02-28T19:21:40.398Z,13.20
2019-02-28T19:24:12.773Z,13.57
2019-02-28T19:26:45.329Z,12.20
2019-02-28T19:29:17.875Z,12.83
2019-02-28T19:31:50.313Z,14.60
2019-02-28T19:34:22.731Z,13.63
2019-02-28T19:36:55.168Z,14.50
2019-02-28T19:39:27.803Z,16.13
2019-02-28T19:42:00.197Z,20.47
2019-02-28T19:44:32.920Z,12.90
2019-02-28T19:47:05.262Z,13.37
2019-02-28T19:49:38.026Z,11.63
2019-02-28T19:52:10.568Z,12.77
2019-02-28T19:54:43.476Z,12.40
2019-02-28T19:57:16.185Z,12.53
2019-02-28T19:59:48.857Z,13.07
2019-02-28T20:02:21.424Z,12.07
2019-02-28T20:04:54.130Z,13.73
2019-02-28T20:07:26.561Z,12.53
2019-02-28T20:09:59.081Z,13.70
2019-02-28T20:12:31.653Z,12.73
2019-02-28T20:15:04.063Z,12.67
2019-02-28T20:17:37.480Z,12.90
2019-02-28T20:20:14.107Z,13.83
2019-02-28T20:22:46.717Z,13.67
2019-02-28T20:25:19.236Z,12.63
2019-02-28T20:27:52.026Z,13.50
2019-02-28T20:30:26.123Z,12.30
2019-02-28T20:32:58.926Z,12.80
2019-02-28T20:35:31.766Z,12.83
2019-02-28T20:38:04.332Z,12.43
2019-02-28T20:40:44.238Z,11.17
2019-02-28T20:43:17.196Z,12.20
2019-02-28T20:45:49.941Z,11.80
2019-02-28T20:48:22.818Z,12.10
2019-02-28T20:50:55.448Z,13.83
2019-02-28T20:53:28.041Z,12.27
2019-02-28T20:56:01.058Z,13.20
2019-02-28T20:58:33.768Z,11.80
2019-02-28T21:01:07.203Z,12.07
2019-02-28T21:03:39.797Z,12.03
2019-02-28T21:06:12.415Z,12.37
2019-02-28T21:08:44.800Z,12.83
2019-02-28T21:11:17.819Z,13.70
2019-02-28T21:13:50.226Z,12.90
2019-02-28T21:16:22.930Z,12.87
2019-02-28T21:18:55.537Z,12.93
2019-02-28T21:21:28.335Z,11.80
2019-02-28T21:24:00.780Z,13.63
2019-02-28T21:26:33.329Z,13.07
2019-02-28T21:29:18.396Z,13.30
2019-02-28T21:31:51.126Z,15.77
2019-02-28T21:34:25.011Z,15.13
2019-02-28T21:36:57.598Z,13.87
2019-02-28T21:39:30.139Z,14.90
2019-02-28T21:42:02.881Z,13.90
2019-02-28T21:44:36.052Z,13.90
2019-02-28T21:47:08.692Z,13.57
2019-02-28T21:49:41.333Z,14.00
2019-02-28T21:52:15.200Z,12.83
2019-02-28T21:54:47.862Z,13.50
2019-02-28T21:57:20.322Z,14.00
2019-02-28T21:59:52.964Z,14.27
2019-02-28T22:02:25.709Z,14.33
2019-02-28T22:04:58.404Z,14.57
2019-02-28T22:07:31.109Z,14.23
2019-02-28T22:10:03.342Z,14.43
2019-02-28T22:12:35.933Z,14.67
2019-02-28T22:15:11.047Z,14.50
2019-02-28T22:17:43.738Z,14.33
2019-02-28T22:20:16.373Z,16.47
2019-02-28T22:22:48.958Z,14.60
2019-02-28T22:25:21.672Z,14.70
2019-02-28T22:27:54.337Z,15.50
2019-02-28T22:30:45.171Z,21.37
2019-02-28T22:33:39.466Z,18.80
2019-02-28T22:36:13.916Z,19.47
2019-02-28T22:38:46.468Z,16.67
2019-02-28T22:41:18.937Z,18.00
2019-02-28T22:43:51.564Z,18.83
2019-02-28T22:46:24.042Z,20.80
2019-02-28T22:48:56.549Z,18.17
2019-02-28T22:51:29.188Z,17.97
2019-02-28T22:54:01.518Z,18.97
2019-02-28T22:56:34.064Z,17.93
2019-02-28T22:59:06.359Z,18.57
2019-02-28T23:01:41.147Z,17.93
2019-02-28T23:04:13.515Z,17.90
2019-02-28T23:06:45.915Z,19.17
2019-02-28T23:09:18.415Z,18.73
2019-02-28T23:11:51.003Z,18.20
2019-02-28T23:14:23.442Z,18.03
2019-02-28T23:16:55.819Z,17.80
2019-02-28T23:19:28.483Z,17.33
2019-02-28T23:22:00.977Z,16.17
2019-02-28T23:24:33.629Z,16.27
2019-02-28T23:27:21.907Z,17.10
2019-02-28T23:30:39.692Z,15.97
2019-02-28T23:33:19.053Z,17.10
2019-02-28T23:35:52.313Z,17.63
2019-02-28T23:38:24.954Z,16.20
2019-02-28T23:40:59.284Z,15.63
2019-02-28T23:43:31.762Z,16.70
2019-02-28T23:46:04.152Z,15.83
2019-02-28T23:48:36.572Z,15.93
2019-02-28T23:51:09.210Z,16.43
2019-02-28T23:53:41.508Z,17.63
2019-02-28T23:56:13.787Z,17.13
2019-02-28T23:58:46.190Z,16.07
